sensor_id;sensor_type;location;lat;lon;timestamp;P1;durP1;ratioP1;P2;durP2;ratioP2
18249;SDS011;27980;52.126;5.572;2023-03-13T00:00:54;30.05;;;6.40;;
18249;SDS011;27980;52.126;5.572;2023-03-13T00:03:21;24.48;;;6.72;;
18249;SDS011;27980;52.126;5.572;2023-03-13T00:05:48;30.00;;;6.55;;
18249;SDS011;27980;52.126;5.572;2023-03-13T00:08:14;24.98;;;6.35;;
18249;SDS011;27980;52.126;5.572;2023-03-13T00:10:42;24.80;;;6.13;;
18249;SDS011;27980;52.126;5.572;2023-03-13T00:13:08;23.90;;;6.28;;
18249;SDS011;27980;52.126;5.572;2023-03-13T00:15:35;23.73;;;7.07;;
18249;SDS011;27980;52.126;5.572;2023-03-13T00:18:01;26.00;;;6.50;;
18249;SDS011;27980;52.126;5.572;2023-03-13T00:20:28;25.58;;;6.68;;
18249;SDS011;27980;52.126;5.572;2023-03-13T00:22:54;23.13;;;5.57;;
18249;SDS011;27980;52.126;5.572;2023-03-13T00:25:21;24.30;;;6.63;;
18249;SDS011;27980;52.126;5.572;2023-03-13T00:27:49;25.42;;;6.45;;
18249;SDS011;27980;52.126;5.572;2023-03-13T00:30:15;25.08;;;6.13;;
18249;SDS011;27980;52.126;5.572;2023-03-13T00:32:42;24.15;;;5.63;;
18249;SDS011;27980;52.126;5.572;2023-03-13T00:35:10;23.35;;;5.72;;
18249;SDS011;27980;52.126;5.572;2023-03-13T00:37:36;26.15;;;6.55;;
18249;SDS011;27980;52.126;5.572;2023-03-13T00:40:03;27.98;;;6.18;;
18249;SDS011;27980;52.126;5.572;2023-03-13T00:42:30;31.38;;;6.78;;
18249;SDS011;27980;52.126;5.572;2023-03-13T00:44:57;23.98;;;5.85;;
18249;SDS011;27980;52.126;5.572;2023-03-13T00:47:24;27.73;;;6.20;;
18249;SDS011;27980;52.126;5.572;2023-03-13T00:49:50;21.98;;;5.60;;
18249;SDS011;27980;52.126;5.572;2023-03-13T00:52:17;21.95;;;5.25;;
18249;SDS011;27980;52.126;5.572;2023-03-13T00:54:43;26.95;;;7.07;;
18249;SDS011;27980;52.126;5.572;2023-03-13T00:57:10;33.03;;;5.72;;
18249;SDS011;27980;52.126;5.572;2023-03-13T00:59:36;21.38;;;5.60;;
18249;SDS011;27980;52.126;5.572;2023-03-13T01:02:04;25.08;;;5.35;;
18249;SDS011;27980;52.126;5.572;2023-03-13T01:04:30;21.85;;;5.80;;
18249;SDS011;27980;52.126;5.572;2023-03-13T01:06:57;26.98;;;6.20;;
18249;SDS011;27980;52.126;5.572;2023-03-13T01:09:23;26.40;;;6.82;;
18249;SDS011;27980;52.126;5.572;2023-03-13T01:11:50;25.75;;;6.10;;
18249;SDS011;27980;52.126;5.572;2023-03-13T01:14:17;22.77;;;6.45;;
18249;SDS011;27980;52.126;5.572;2023-03-13T01:16:43;25.23;;;6.03;;
18249;SDS011;27980;52.126;5.572;2023-03-13T01:19:12;21.95;;;5.65;;
18249;SDS011;27980;52.126;5.572;2023-03-13T01:21:38;21.15;;;6.72;;
18249;SDS011;27980;52.126;5.572;2023-03-13T01:24:05;22.23;;;6.18;;
18249;SDS011;27980;52.126;5.572;2023-03-13T01:26:32;19.63;;;6.15;;
18249;SDS011;27980;52.126;5.572;2023-03-13T01:28:59;20.63;;;6.10;;
18249;SDS011;27980;52.126;5.572;2023-03-13T01:31:26;21.40;;;6.53;;
18249;SDS011;27980;52.126;5.572;2023-03-13T01:33:53;16.70;;;5.93;;
18249;SDS011;27980;52.126;5.572;2023-03-13T01:36:22;20.92;;;6.50;;
18249;SDS011;27980;52.126;5.572;2023-03-13T01:38:49;20.90;;;6.05;;
18249;SDS011;27980;52.126;5.572;2023-03-13T01:41:16;21.23;;;5.65;;
18249;SDS011;27980;52.126;5.572;2023-03-13T01:43:43;19.75;;;6.32;;
18249;SDS011;27980;52.126;5.572;2023-03-13T01:46:11;12.85;;;5.80;;
18249;SDS011;27980;52.126;5.572;2023-03-13T01:48:40;12.25;;;5.68;;
18249;SDS011;27980;52.126;5.572;2023-03-13T01:51:09;14.57;;;5.75;;
18249;SDS011;27980;52.126;5.572;2023-03-13T01:53:39;21.35;;;6.18;;
18249;SDS011;27980;52.126;5.572;2023-03-13T01:56:07;13.85;;;6.38;;
18249;SDS011;27980;52.126;5.572;2023-03-13T01:58:36;14.18;;;7.13;;
18249;SDS011;27980;52.126;5.572;2023-03-13T02:01:03;17.05;;;7.28;;
18249;SDS011;27980;52.126;5.572;2023-03-13T02:03:30;15.57;;;6.85;;
18249;SDS011;27980;52.126;5.572;2023-03-13T02:05:56;16.83;;;7.43;;
18249;SDS011;27980;52.126;5.572;2023-03-13T02:08:28;16.55;;;6.93;;
18249;SDS011;27980;52.126;5.572;2023-03-13T02:10:57;14.05;;;7.00;;
18249;SDS011;27980;52.126;5.572;2023-03-13T02:13:26;12.35;;;6.82;;
18249;SDS011;27980;52.126;5.572;2023-03-13T02:15:54;12.85;;;6.82;;
18249;SDS011;27980;52.126;5.572;2023-03-13T02:18:20;14.18;;;6.68;;
18249;SDS011;27980;52.126;5.572;2023-03-13T02:20:47;13.57;;;7.47;;
18249;SDS011;27980;52.126;5.572;2023-03-13T02:23:17;12.90;;;7.63;;
18249;SDS011;27980;52.126;5.572;2023-03-13T02:25:46;17.98;;;7.85;;
18249;SDS011;27980;52.126;5.572;2023-03-13T02:28:14;14.73;;;8.50;;
18249;SDS011;27980;52.126;5.572;2023-03-13T02:30:41;18.33;;;8.07;;
18249;SDS011;27980;52.126;5.572;2023-03-13T02:33:09;14.73;;;7.32;;
18249;SDS011;27980;52.126;5.572;2023-03-13T02:35:36;17.13;;;8.10;;
18249;SDS011;27980;52.126;5.572;2023-03-13T02:38:03;16.27;;;8.43;;
18249;SDS011;27980;52.126;5.572;2023-03-13T02:40:31;17.50;;;9.05;;
18249;SDS011;27980;52.126;5.572;2023-03-13T02:43:01;16.45;;;9.07;;
18249;SDS011;27980;52.126;5.572;2023-03-13T02:45:28;16.08;;;8.68;;
18249;SDS011;27980;52.126;5.572;2023-03-13T02:47:54;14.65;;;9.15;;
18249;SDS011;27980;52.126;5.572;2023-03-13T02:50:21;17.77;;;10.23;;
18249;SDS011;27980;52.126;5.572;2023-03-13T02:52:49;15.70;;;10.30;;
18249;SDS011;27980;52.126;5.572;2023-03-13T02:55:17;18.08;;;10.05;;
18249;SDS011;27980;52.126;5.572;2023-03-13T02:57:46;18.13;;;10.13;;
18249;SDS011;27980;52.126;5.572;2023-03-13T03:00:16;19.23;;;10.23;;
18249;SDS011;27980;52.126;5.572;2023-03-13T03:02:44;16.60;;;11.25;;
18249;SDS011;27980;52.126;5.572;2023-03-13T03:05:10;16.17;;;10.75;;
18249;SDS011;27980;52.126;5.572;2023-03-13T03:07:37;19.25;;;12.50;;
18249;SDS011;27980;52.126;5.572;2023-03-13T03:10:04;22.48;;;12.80;;
18249;SDS011;27980;52.126;5.572;2023-03-13T03:12:31;23.98;;;13.68;;
18249;SDS011;27980;52.126;5.572;2023-03-13T03:14:57;21.50;;;12.52;;
18249;SDS011;27980;52.126;5.572;2023-03-13T03:17:25;22.48;;;13.95;;
18249;SDS011;27980;52.126;5.572;2023-03-13T03:19:51;23.83;;;15.02;;
18249;SDS011;27980;52.126;5.572;2023-03-13T03:22:17;25.30;;;15.30;;
18249;SDS011;27980;52.126;5.572;2023-03-13T03:24:44;21.50;;;15.95;;
18249;SDS011;27980;52.126;5.572;2023-03-13T03:27:10;22.17;;;15.68;;
18249;SDS011;27980;52.126;5.572;2023-03-13T03:29:36;26.25;;;16.23;;
18249;SDS011;27980;52.126;5.572;2023-03-13T03:32:03;24.27;;;16.50;;
18249;SDS011;27980;52.126;5.572;2023-03-13T03:34:31;24.85;;;16.42;;
18249;SDS011;27980;52.126;5.572;2023-03-13T03:36:58;21.77;;;15.90;;
18249;SDS011;27980;52.126;5.572;2023-03-13T03:39:24;24.83;;;17.17;;
18249;SDS011;27980;52.126;5.572;2023-03-13T03:41:51;26.75;;;16.92;;
18249;SDS011;27980;52.126;5.572;2023-03-13T03:44:17;25.58;;;17.05;;
18249;SDS011;27980;52.126;5.572;2023-03-13T03:46:44;24.25;;;16.77;;
18249;SDS011;27980;52.126;5.572;2023-03-13T03:49:10;25.80;;;17.50;;
18249;SDS011;27980;52.126;5.572;2023-03-13T03:51:38;23.77;;;17.20;;
18249;SDS011;27980;52.126;5.572;2023-03-13T03:54:05;26.10;;;17.38;;
18249;SDS011;27980;52.126;5.572;2023-03-13T03:56:31;29.27;;;18.33;;
18249;SDS011;27980;52.126;5.572;2023-03-13T03:58:57;28.52;;;18.58;;
18249;SDS011;27980;52.126;5.572;2023-03-13T04:01:26;24.90;;;18.15;;
18249;SDS011;27980;52.126;5.572;2023-03-13T04:03:52;27.95;;;18.45;;
18249;SDS011;27980;52.126;5.572;2023-03-13T04:06:19;24.67;;;18.05;;
18249;SDS011;27980;52.126;5.572;2023-03-13T04:08:47;24.83;;;18.45;;
18249;SDS011;27980;52.126;5.572;2023-03-13T04:11:13;23.55;;;17.67;;
18249;SDS011;27980;52.126;5.572;2023-03-13T04:13:40;21.30;;;17.58;;
18249;SDS011;27980;52.126;5.572;2023-03-13T04:16:07;27.10;;;19.00;;
18249;SDS011;27980;52.126;5.572;2023-03-13T04:18:33;34.65;;;20.15;;
18249;SDS011;27980;52.126;5.572;2023-03-13T04:21:00;27.23;;;18.30;;
18249;SDS011;27980;52.126;5.572;2023-03-13T04:23:27;29.65;;;18.90;;
18249;SDS011;27980;52.126;5.572;2023-03-13T04:25:55;26.42;;;19.17;;
18249;SDS011;27980;52.126;5.572;2023-03-13T04:28:21;20.42;;;17.60;;
18249;SDS011;27980;52.126;5.572;2023-03-13T04:30:47;29.13;;;18.35;;
18249;SDS011;27980;52.126;5.572;2023-03-13T04:33:14;24.65;;;18.25;;
18249;SDS011;27980;52.126;5.572;2023-03-13T04:35:40;28.13;;;18.20;;
18249;SDS011;27980;52.126;5.572;2023-03-13T04:38:07;27.48;;;17.92;;
18249;SDS011;27980;52.126;5.572;2023-03-13T04:40:33;26.48;;;18.42;;
18249;SDS011;27980;52.126;5.572;2023-03-13T04:43:01;25.38;;;17.45;;
18249;SDS011;27980;52.126;5.572;2023-03-13T04:45:29;26.67;;;18.38;;
18249;SDS011;27980;52.126;5.572;2023-03-13T04:47:55;27.83;;;18.80;;
18249;SDS011;27980;52.126;5.572;2023-03-13T04:50:22;26.65;;;17.58;;
18249;SDS011;27980;52.126;5.572;2023-03-13T04:52:48;26.20;;;18.05;;
18249;SDS011;27980;52.126;5.572;2023-03-13T04:55:14;26.85;;;18.13;;
18249;SDS011;27980;52.126;5.572;2023-03-13T04:57:41;24.40;;;17.33;;
18249;SDS011;27980;52.126;5.572;2023-03-13T05:00:11;21.08;;;16.00;;
18249;SDS011;27980;52.126;5.572;2023-03-13T05:02:37;21.23;;;16.30;;
18249;SDS011;27980;52.126;5.572;2023-03-13T05:05:04;23.73;;;16.05;;
18249;SDS011;27980;52.126;5.572;2023-03-13T05:07:30;22.83;;;15.90;;
18249;SDS011;27980;52.126;5.572;2023-03-13T05:09:57;21.00;;;14.63;;
18249;SDS011;27980;52.126;5.572;2023-03-13T05:12:23;21.73;;;14.68;;
18249;SDS011;27980;52.126;5.572;2023-03-13T05:14:49;22.45;;;14.18;;
18249;SDS011;27980;52.126;5.572;2023-03-13T05:17:18;22.63;;;13.95;;
18249;SDS011;27980;52.126;5.572;2023-03-13T05:19:44;18.02;;;12.48;;
18249;SDS011;27980;52.126;5.572;2023-03-13T05:22:13;20.27;;;12.65;;
18249;SDS011;27980;52.126;5.572;2023-03-13T05:24:43;18.75;;;11.90;;
18249;SDS011;27980;52.126;5.572;2023-03-13T05:27:09;14.98;;;10.63;;
18249;SDS011;27980;52.126;5.572;2023-03-13T05:29:35;16.08;;;11.55;;
18249;SDS011;27980;52.126;5.572;2023-03-13T05:32:02;18.08;;;11.05;;
18249;SDS011;27980;52.126;5.572;2023-03-13T05:34:30;19.77;;;10.85;;
18249;SDS011;27980;52.126;5.572;2023-03-13T05:36:56;18.13;;;10.18;;
18249;SDS011;27980;52.126;5.572;2023-03-13T05:39:23;17.27;;;9.80;;
18249;SDS011;27980;52.126;5.572;2023-03-13T05:41:49;14.18;;;9.93;;
18249;SDS011;27980;52.126;5.572;2023-03-13T05:44:16;18.23;;;9.35;;
18249;SDS011;27980;52.126;5.572;2023-03-13T05:46:42;13.55;;;8.32;;
18249;SDS011;27980;52.126;5.572;2023-03-13T05:49:09;15.68;;;8.85;;
18249;SDS011;27980;52.126;5.572;2023-03-13T05:51:36;17.15;;;7.40;;
18249;SDS011;27980;52.126;5.572;2023-03-13T05:54:03;16.27;;;7.90;;
18249;SDS011;27980;52.126;5.572;2023-03-13T05:56:30;15.48;;;7.70;;
18249;SDS011;27980;52.126;5.572;2023-03-13T05:58:56;8.77;;;5.97;;
18249;SDS011;27980;52.126;5.572;2023-03-13T06:01:23;10.40;;;6.10;;
18249;SDS011;27980;52.126;5.572;2023-03-13T06:03:49;11.75;;;6.53;;
18249;SDS011;27980;52.126;5.572;2023-03-13T06:06:16;7.85;;;5.20;;
18249;SDS011;27980;52.126;5.572;2023-03-13T06:08:43;12.88;;;5.10;;
18249;SDS011;27980;52.126;5.572;2023-03-13T06:11:10;10.02;;;5.90;;
18249;SDS011;27980;52.126;5.572;2023-03-13T06:13:37;12.00;;;5.45;;
18249;SDS011;27980;52.126;5.572;2023-03-13T06:16:03;7.90;;;4.40;;
18249;SDS011;27980;52.126;5.572;2023-03-13T06:18:30;10.00;;;5.15;;
18249;SDS011;27980;52.126;5.572;2023-03-13T06:20:56;10.20;;;4.93;;
18249;SDS011;27980;52.126;5.572;2023-03-13T06:23:23;7.05;;;4.20;;
18249;SDS011;27980;52.126;5.572;2023-03-13T06:25:51;11.40;;;4.80;;
18249;SDS011;27980;52.126;5.572;2023-03-13T06:28:18;10.98;;;4.72;;
18249;SDS011;27980;52.126;5.572;2023-03-13T06:30:44;10.90;;;4.78;;
18249;SDS011;27980;52.126;5.572;2023-03-13T06:33:11;8.52;;;4.35;;
18249;SDS011;27980;52.126;5.572;2023-03-13T06:35:39;10.93;;;5.13;;
18249;SDS011;27980;52.126;5.572;2023-03-13T06:38:05;5.47;;;4.05;;
18249;SDS011;27980;52.126;5.572;2023-03-13T06:40:32;6.75;;;4.30;;
18249;SDS011;27980;52.126;5.572;2023-03-13T06:42:59;7.45;;;4.45;;
18249;SDS011;27980;52.126;5.572;2023-03-13T06:45:26;8.55;;;4.40;;
18249;SDS011;27980;52.126;5.572;2023-03-13T06:47:52;8.57;;;4.93;;
18249;SDS011;27980;52.126;5.572;2023-03-13T06:50:19;10.27;;;5.00;;
18249;SDS011;27980;52.126;5.572;2023-03-13T06:52:45;12.35;;;4.57;;
18249;SDS011;27980;52.126;5.572;2023-03-13T06:55:12;8.13;;;4.07;;
18249;SDS011;27980;52.126;5.572;2023-03-13T06:57:39;5.47;;;3.63;;
18249;SDS011;27980;52.126;5.572;2023-03-13T07:00:07;8.63;;;3.80;;
18249;SDS011;27980;52.126;5.572;2023-03-13T07:02:35;7.20;;;3.83;;
18249;SDS011;27980;52.126;5.572;2023-03-13T07:05:01;8.48;;;3.85;;
18249;SDS011;27980;52.126;5.572;2023-03-13T07:07:29;8.25;;;4.10;;
18249;SDS011;27980;52.126;5.572;2023-03-13T07:09:57;10.55;;;3.80;;
18249;SDS011;27980;52.126;5.572;2023-03-13T07:12:23;9.50;;;3.67;;
18249;SDS011;27980;52.126;5.572;2023-03-13T07:14:49;5.72;;;3.50;;
18249;SDS011;27980;52.126;5.572;2023-03-13T07:17:17;8.50;;;3.65;;
18249;SDS011;27980;52.126;5.572;2023-03-13T07:19:44;6.07;;;3.90;;
18249;SDS011;27980;52.126;5.572;2023-03-13T07:22:10;8.52;;;3.60;;
18249;SDS011;27980;52.126;5.572;2023-03-13T07:24:36;7.53;;;3.50;;
18249;SDS011;27980;52.126;5.572;2023-03-13T07:27:03;7.20;;;3.58;;
18249;SDS011;27980;52.126;5.572;2023-03-13T07:29:29;6.43;;;3.40;;
18249;SDS011;27980;52.126;5.572;2023-03-13T07:31:56;7.93;;;3.72;;
18249;SDS011;27980;52.126;5.572;2023-03-13T07:34:23;7.63;;;3.92;;
18249;SDS011;27980;52.126;5.572;2023-03-13T07:36:50;7.20;;;3.30;;
18249;SDS011;27980;52.126;5.572;2023-03-13T07:39:16;8.93;;;4.45;;
18249;SDS011;27980;52.126;5.572;2023-03-13T07:41:42;7.55;;;3.92;;
18249;SDS011;27980;52.126;5.572;2023-03-13T07:44:09;5.47;;;3.45;;
18249;SDS011;27980;52.126;5.572;2023-03-13T07:46:35;9.13;;;4.50;;
18249;SDS011;27980;52.126;5.572;2023-03-13T07:49:02;7.50;;;3.97;;
18249;SDS011;27980;52.126;5.572;2023-03-13T07:51:29;9.60;;;4.55;;
18249;SDS011;27980;52.126;5.572;2023-03-13T07:53:56;11.20;;;4.43;;
18249;SDS011;27980;52.126;5.572;2023-03-13T07:56:22;10.18;;;4.68;;
18249;SDS011;27980;52.126;5.572;2023-03-13T07:58:49;10.27;;;4.50;;
18249;SDS011;27980;52.126;5.572;2023-03-13T08:01:16;7.50;;;3.92;;
18249;SDS011;27980;52.126;5.572;2023-03-13T08:03:43;12.07;;;5.38;;
18249;SDS011;27980;52.126;5.572;2023-03-13T08:06:11;12.30;;;5.40;;
18249;SDS011;27980;52.126;5.572;2023-03-13T08:08:39;12.38;;;4.35;;
18249;SDS011;27980;52.126;5.572;2023-03-13T08:11:06;10.23;;;4.68;;
18249;SDS011;27980;52.126;5.572;2023-03-13T08:13:33;10.27;;;4.80;;
18249;SDS011;27980;52.126;5.572;2023-03-13T08:16:06;12.15;;;4.20;;
18249;SDS011;27980;52.126;5.572;2023-03-13T08:18:33;8.10;;;4.47;;
18249;SDS011;27980;52.126;5.572;2023-03-13T08:21:00;7.22;;;4.60;;
18249;SDS011;27980;52.126;5.572;2023-03-13T08:23:26;9.35;;;4.20;;
18249;SDS011;27980;52.126;5.572;2023-03-13T08:25:54;5.60;;;4.15;;
18249;SDS011;27980;52.126;5.572;2023-03-13T08:28:20;8.80;;;4.47;;
18249;SDS011;27980;52.126;5.572;2023-03-13T08:30:47;9.63;;;4.43;;
18249;SDS011;27980;52.126;5.572;2023-03-13T08:33:13;7.72;;;4.68;;
18249;SDS011;27980;52.126;5.572;2023-03-13T08:35:39;11.02;;;4.68;;
18249;SDS011;27980;52.126;5.572;2023-03-13T08:38:06;10.98;;;4.57;;
18249;SDS011;27980;52.126;5.572;2023-03-13T08:40:32;16.05;;;5.03;;
18249;SDS011;27980;52.126;5.572;2023-03-13T08:43:00;6.47;;;4.43;;
18249;SDS011;27980;52.126;5.572;2023-03-13T08:45:27;9.23;;;4.30;;
18249;SDS011;27980;52.126;5.572;2023-03-13T08:47:53;8.13;;;4.28;;
18249;SDS011;27980;52.126;5.572;2023-03-13T08:50:20;6.75;;;3.70;;
18249;SDS011;27980;52.126;5.572;2023-03-13T08:52:46;11.63;;;3.80;;
18249;SDS011;27980;52.126;5.572;2023-03-13T08:55:13;10.07;;;3.72;;
18249;SDS011;27980;52.126;5.572;2023-03-13T08:57:39;10.35;;;3.90;;
18249;SDS011;27980;52.126;5.572;2023-03-13T09:00:09;7.53;;;3.63;;
18249;SDS011;27980;52.126;5.572;2023-03-13T09:02:37;5.03;;;2.83;;
18249;SDS011;27980;52.126;5.572;2023-03-13T09:05:04;6.13;;;3.15;;
18249;SDS011;27980;52.126;5.572;2023-03-13T09:07:30;9.32;;;3.63;;
18249;SDS011;27980;52.126;5.572;2023-03-13T09:09:57;7.82;;;3.50;;
18249;SDS011;27980;52.126;5.572;2023-03-13T09:12:23;9.63;;;3.70;;
18249;SDS011;27980;52.126;5.572;2023-03-13T09:14:51;5.95;;;3.28;;
18249;SDS011;27980;52.126;5.572;2023-03-13T09:17:19;5.85;;;2.70;;
18249;SDS011;27980;52.126;5.572;2023-03-13T09:19:45;7.70;;;2.35;;
18249;SDS011;27980;52.126;5.572;2023-03-13T09:22:12;4.43;;;2.50;;
18249;SDS011;27980;52.126;5.572;2023-03-13T09:24:39;4.97;;;2.45;;
18249;SDS011;27980;52.126;5.572;2023-03-13T09:27:06;6.57;;;2.90;;
18249;SDS011;27980;52.126;5.572;2023-03-13T09:29:33;4.18;;;2.28;;
18249;SDS011;27980;52.126;5.572;2023-03-13T09:32:04;4.18;;;1.90;;
18249;SDS011;27980;52.126;5.572;2023-03-13T09:34:32;10.27;;;5.28;;
18249;SDS011;27980;52.126;5.572;2023-03-13T09:36:58;5.93;;;2.00;;
18249;SDS011;27980;52.126;5.572;2023-03-13T09:39:25;5.55;;;1.90;;
18249;SDS011;27980;52.126;5.572;2023-03-13T09:41:52;8.20;;;2.00;;
18249;SDS011;27980;52.126;5.572;2023-03-13T09:44:21;4.80;;;1.73;;
18249;SDS011;27980;52.126;5.572;2023-03-13T09:46:54;6.22;;;2.10;;
18249;SDS011;27980;52.126;5.572;2023-03-13T09:49:27;5.60;;;2.10;;
18249;SDS011;27980;52.126;5.572;2023-03-13T09:51:57;5.65;;;1.85;;
18249;SDS011;27980;52.126;5.572;2023-03-13T09:54:27;5.80;;;2.17;;
18249;SDS011;27980;52.126;5.572;2023-03-13T09:56:55;5.43;;;1.90;;
18249;SDS011;27980;52.126;5.572;2023-03-13T09:59:26;3.58;;;1.73;;
18249;SDS011;27980;52.126;5.572;2023-03-13T10:01:54;5.05;;;1.65;;
18249;SDS011;27980;52.126;5.572;2023-03-13T10:04:26;7.78;;;1.98;;
18249;SDS011;27980;52.126;5.572;2023-03-13T10:06:53;4.43;;;1.73;;
18249;SDS011;27980;52.126;5.572;2023-03-13T10:09:25;3.65;;;1.48;;
18249;SDS011;27980;52.126;5.572;2023-03-13T10:11:54;5.07;;;1.63;;
18249;SDS011;27980;52.126;5.572;2023-03-13T10:14:26;2.75;;;1.60;;
18249;SDS011;27980;52.126;5.572;2023-03-13T10:16:56;3.45;;;1.70;;
18249;SDS011;27980;52.126;5.572;2023-03-13T10:19:27;5.32;;;1.80;;
18249;SDS011;27980;52.126;5.572;2023-03-13T10:21:56;6.10;;;2.00;;
18249;SDS011;27980;52.126;5.572;2023-03-13T10:24:32;4.45;;;1.50;;
18249;SDS011;27980;52.126;5.572;2023-03-13T10:26:59;3.33;;;1.10;;
18249;SDS011;27980;52.126;5.572;2023-03-13T10:29:26;6.00;;;1.92;;
18249;SDS011;27980;52.126;5.572;2023-03-13T10:31:54;2.60;;;1.20;;
18249;SDS011;27980;52.126;5.572;2023-03-13T10:34:21;3.55;;;1.13;;
18249;SDS011;27980;52.126;5.572;2023-03-13T10:36:48;2.88;;;1.25;;
18249;SDS011;27980;52.126;5.572;2023-03-13T10:39:15;3.10;;;1.30;;
18249;SDS011;27980;52.126;5.572;2023-03-13T10:41:44;2.65;;;1.35;;
18249;SDS011;27980;52.126;5.572;2023-03-13T10:44:16;6.38;;;1.67;;
18249;SDS011;27980;52.126;5.572;2023-03-13T10:46:43;3.28;;;1.70;;
18249;SDS011;27980;52.126;5.572;2023-03-13T10:49:12;5.93;;;1.50;;
18249;SDS011;27980;52.126;5.572;2023-03-13T10:51:40;2.88;;;1.55;;
18249;SDS011;27980;52.126;5.572;2023-03-13T10:54:13;3.55;;;1.40;;
18249;SDS011;27980;52.126;5.572;2023-03-13T10:56:40;5.90;;;1.48;;
18249;SDS011;27980;52.126;5.572;2023-03-13T10:59:18;4.60;;;1.83;;
18249;SDS011;27980;52.126;5.572;2023-03-13T11:01:45;5.53;;;1.80;;
18249;SDS011;27980;52.126;5.572;2023-03-13T11:04:20;4.90;;;1.48;;
18249;SDS011;27980;52.126;5.572;2023-03-13T11:06:52;7.57;;;1.88;;
18249;SDS011;27980;52.126;5.572;2023-03-13T11:09:23;5.80;;;1.65;;
18249;SDS011;27980;52.126;5.572;2023-03-13T11:11:52;5.45;;;1.67;;
18249;SDS011;27980;52.126;5.572;2023-03-13T11:14:20;4.55;;;1.27;;
18249;SDS011;27980;52.126;5.572;2023-03-13T11:16:47;5.00;;;1.52;;
18249;SDS011;27980;52.126;5.572;2023-03-13T11:22:01;4.10;;;1.35;;
18249;SDS011;27980;52.126;5.572;2023-03-13T11:24:32;7.15;;;1.65;;
18249;SDS011;27980;52.126;5.572;2023-03-13T11:27:01;3.65;;;1.58;;
18249;SDS011;27980;52.126;5.572;2023-03-13T11:29:31;4.05;;;1.40;;
18249;SDS011;27980;52.126;5.572;2023-03-13T11:32:01;3.45;;;1.27;;
18249;SDS011;27980;52.126;5.572;2023-03-13T11:34:30;2.47;;;1.10;;
18249;SDS011;27980;52.126;5.572;2023-03-13T11:36:59;2.65;;;1.08;;
18249;SDS011;27980;52.126;5.572;2023-03-13T11:39:35;2.28;;;1.27;;
18249;SDS011;27980;52.126;5.572;2023-03-13T11:42:06;2.47;;;0.95;;
18249;SDS011;27980;52.126;5.572;2023-03-13T11:44:43;5.43;;;1.40;;
18249;SDS011;27980;52.126;5.572;2023-03-13T11:47:22;3.22;;;1.10;;
18249;SDS011;27980;52.126;5.572;2023-03-13T11:49:56;4.53;;;1.33;;
18249;SDS011;27980;52.126;5.572;2023-03-13T11:55:12;3.63;;;1.20;;
18249;SDS011;27980;52.126;5.572;2023-03-13T11:57:44;3.72;;;1.73;;
18249;SDS011;27980;52.126;5.572;2023-03-13T12:00:16;3.58;;;1.25;;
18249;SDS011;27980;52.126;5.572;2023-03-13T12:02:45;3.83;;;1.20;;
18249;SDS011;27980;52.126;5.572;2023-03-13T12:05:16;4.55;;;1.45;;
18249;SDS011;27980;52.126;5.572;2023-03-13T12:07:44;4.32;;;1.17;;
18249;SDS011;27980;52.126;5.572;2023-03-13T12:10:13;3.20;;;1.20;;
18249;SDS011;27980;52.126;5.572;2023-03-13T12:12:40;4.63;;;1.40;;
18249;SDS011;27980;52.126;5.572;2023-03-13T12:15:26;2.55;;;1.20;;
18249;SDS011;27980;52.126;5.572;2023-03-13T12:17:54;3.22;;;1.10;;
18249;SDS011;27980;52.126;5.572;2023-03-13T12:20:22;2.53;;;1.40;;
18249;SDS011;27980;52.126;5.572;2023-03-13T12:22:52;2.90;;;1.20;;
18249;SDS011;27980;52.126;5.572;2023-03-13T12:25:20;3.78;;;1.42;;
18249;SDS011;27980;52.126;5.572;2023-03-13T12:27:49;5.93;;;1.52;;
18249;SDS011;27980;52.126;5.572;2023-03-13T12:30:20;5.60;;;1.42;;
18249;SDS011;27980;52.126;5.572;2023-03-13T12:32:51;7.53;;;1.67;;
18249;SDS011;27980;52.126;5.572;2023-03-13T12:35:19;5.40;;;1.75;;
18249;SDS011;27980;52.126;5.572;2023-03-13T12:37:48;7.60;;;1.70;;
18249;SDS011;27980;52.126;5.572;2023-03-13T12:40:19;6.20;;;1.98;;
18249;SDS011;27980;52.126;5.572;2023-03-13T12:42:48;4.20;;;1.40;;
18249;SDS011;27980;52.126;5.572;2023-03-13T12:45:17;3.05;;;1.30;;
18249;SDS011;27980;52.126;5.572;2023-03-13T12:48:05;9.32;;;2.47;;
18249;SDS011;27980;52.126;5.572;2023-03-13T12:50:36;5.95;;;1.80;;
18249;SDS011;27980;52.126;5.572;2023-03-13T12:53:13;4.97;;;1.60;;
18249;SDS011;27980;52.126;5.572;2023-03-13T12:55:51;6.28;;;1.73;;
18249;SDS011;27980;52.126;5.572;2023-03-13T12:58:37;5.72;;;1.70;;
18249;SDS011;27980;52.126;5.572;2023-03-13T13:01:05;6.50;;;1.95;;
18249;SDS011;27980;52.126;5.572;2023-03-13T13:03:34;7.13;;;1.65;;
18249;SDS011;27980;52.126;5.572;2023-03-13T13:06:05;6.50;;;1.92;;
18249;SDS011;27980;52.126;5.572;2023-03-13T13:08:42;5.38;;;1.52;;
18249;SDS011;27980;52.126;5.572;2023-03-13T13:13:54;8.50;;;1.98;;
18249;SDS011;27980;52.126;5.572;2023-03-13T13:16:21;4.90;;;1.65;;
18249;SDS011;27980;52.126;5.572;2023-03-13T13:18:50;5.88;;;2.10;;
18249;SDS011;27980;52.126;5.572;2023-03-13T13:21:25;6.95;;;1.83;;
18249;SDS011;27980;52.126;5.572;2023-03-13T13:23:53;5.15;;;1.60;;
18249;SDS011;27980;52.126;5.572;2023-03-13T13:26:42;5.65;;;1.85;;
18249;SDS011;27980;52.126;5.572;2023-03-13T13:31:57;7.35;;;2.00;;
18249;SDS011;27980;52.126;5.572;2023-03-13T13:34:52;5.70;;;1.90;;
18249;SDS011;27980;52.126;5.572;2023-03-13T13:37:23;7.90;;;1.77;;
18249;SDS011;27980;52.126;5.572;2023-03-13T13:39:51;6.40;;;1.92;;
18249;SDS011;27980;52.126;5.572;2023-03-13T13:42:43;7.60;;;1.88;;
18249;SDS011;27980;52.126;5.572;2023-03-13T13:53:29;7.78;;;2.30;;
18249;SDS011;27980;52.126;5.572;2023-03-13T13:55:56;7.10;;;2.08;;
18249;SDS011;27980;52.126;5.572;2023-03-13T13:58:26;12.82;;;2.97;;
18249;SDS011;27980;52.126;5.572;2023-03-13T14:00:54;9.85;;;2.67;;
18249;SDS011;27980;52.126;5.572;2023-03-13T14:03:25;8.57;;;2.03;;
18249;SDS011;27980;52.126;5.572;2023-03-13T14:05:53;11.32;;;2.58;;
18249;SDS011;27980;52.126;5.572;2023-03-13T14:08:20;10.95;;;2.80;;
18249;SDS011;27980;52.126;5.572;2023-03-13T14:10:50;9.55;;;2.05;;
18249;SDS011;27980;52.126;5.572;2023-03-13T14:13:18;8.68;;;2.50;;
18249;SDS011;27980;52.126;5.572;2023-03-13T14:15:47;9.23;;;2.35;;
18249;SDS011;27980;52.126;5.572;2023-03-13T14:18:15;9.93;;;2.33;;
18249;SDS011;27980;52.126;5.572;2023-03-13T14:23:30;13.73;;;2.70;;
18249;SDS011;27980;52.126;5.572;2023-03-13T14:25:57;11.63;;;3.33;;
18249;SDS011;27980;52.126;5.572;2023-03-13T14:28:24;12.85;;;3.08;;
18249;SDS011;27980;52.126;5.572;2023-03-13T14:30:53;10.18;;;2.90;;
18249;SDS011;27980;52.126;5.572;2023-03-13T14:33:20;14.35;;;3.47;;
18249;SDS011;27980;52.126;5.572;2023-03-13T14:35:47;14.43;;;2.88;;
18249;SDS011;27980;52.126;5.572;2023-03-13T14:38:15;9.30;;;2.42;;
18249;SDS011;27980;52.126;5.572;2023-03-13T14:40:41;11.43;;;2.67;;
18249;SDS011;27980;52.126;5.572;2023-03-13T14:43:13;12.48;;;3.25;;
18249;SDS011;27980;52.126;5.572;2023-03-13T14:45:42;12.20;;;3.80;;
18249;SDS011;27980;52.126;5.572;2023-03-13T14:48:13;15.30;;;3.03;;
18249;SDS011;27980;52.126;5.572;2023-03-13T14:50:42;15.40;;;3.40;;
18249;SDS011;27980;52.126;5.572;2023-03-13T14:53:10;12.07;;;3.08;;
18249;SDS011;27980;52.126;5.572;2023-03-13T14:55:37;9.27;;;2.38;;
18249;SDS011;27980;52.126;5.572;2023-03-13T14:58:05;9.93;;;2.53;;
18249;SDS011;27980;52.126;5.572;2023-03-13T15:00:48;10.45;;;2.47;;
18249;SDS011;27980;52.126;5.572;2023-03-13T15:03:21;14.82;;;3.20;;
18249;SDS011;27980;52.126;5.572;2023-03-13T15:05:49;12.50;;;2.42;;